createdAt,value
2023-01-20T00:01:27.588Z,14.48
2023-01-20T00:06:28.113Z,10.90
2023-01-20T00:11:25.665Z,10.52
2023-01-20T00:16:23.398Z,22.30
2023-01-20T00:21:21.309Z,10.73
2023-01-20T00:26:21.566Z,12.13
2023-01-20T00:31:21.588Z,12.18
2023-01-20T00:36:20.700Z,11.20
2023-01-20T00:41:18.777Z,12.05
2023-01-20T00:46:16.634Z,10.68
2023-01-20T00:51:14.318Z,10.98
2023-01-20T00:56:11.594Z,10.65
2023-01-20T01:01:08.976Z,16.02
2023-01-20T01:06:16.019Z,9.48
2023-01-20T01:11:13.832Z,15.05
2023-01-20T01:16:15.871Z,13.60
2023-01-20T01:21:15.795Z,14.32
2023-01-20T01:26:13.920Z,11.05
2023-01-20T01:31:11.300Z,15.38
2023-01-20T01:36:12.858Z,16.60
2023-01-20T01:41:14.928Z,14.02
2023-01-20T01:46:12.803Z,11.63
2023-01-20T01:51:18.928Z,16.25
2023-01-20T01:56:16.982Z,16.95
2023-01-20T02:01:14.391Z,13.85
2023-01-20T02:06:13.196Z,16.88
2023-01-20T02:11:10.623Z,15.10
2023-01-20T02:16:41.645Z,17.92
2023-01-20T02:22:06.798Z,18.25
2023-01-20T02:27:30.178Z,17.45
2023-01-20T02:32:50.920Z,19.80
2023-01-20T02:38:15.645Z,19.83
2023-01-20T02:43:25.077Z,15.45
2023-01-20T02:48:35.212Z,15.27
2023-01-20T02:53:40.815Z,16.80
2023-01-20T02:59:00.867Z,20.95
2023-01-20T03:04:01.073Z,17.13
2023-01-20T03:14:11.306Z,25.02
2023-01-20T03:19:10.898Z,22.40
2023-01-20T03:24:08.236Z,20.63
2023-01-20T03:29:08.944Z,28.63
2023-01-20T03:34:11.256Z,18.65
2023-01-20T03:39:08.587Z,22.42
2023-01-20T03:44:35.266Z,18.10
2023-01-20T03:50:15.280Z,17.25
2023-01-20T03:55:42.159Z,15.60
2023-01-20T04:00:45.665Z,16.30
2023-01-20T04:05:44.734Z,15.30
2023-01-20T04:10:45.149Z,18.67
2023-01-20T04:15:44.707Z,16.23
2023-01-20T04:20:44.389Z,21.08
2023-01-20T04:25:41.907Z,17.70
2023-01-20T04:30:39.442Z,15.82
2023-01-20T04:35:36.724Z,19.63
2023-01-20T04:40:34.080Z,26.40
2023-01-20T04:45:31.898Z,18.23
2023-01-20T04:50:29.145Z,17.90
2023-01-20T04:55:28.483Z,13.67
2023-01-20T05:00:31.347Z,19.17
2023-01-20T05:05:32.256Z,15.32
2023-01-20T05:10:29.959Z,17.80
2023-01-20T05:15:28.333Z,22.58
2023-01-20T05:20:26.287Z,25.83
2023-01-20T05:25:23.587Z,23.33
2023-01-20T05:30:20.954Z,22.05
2023-01-20T05:35:18.332Z,15.88
2023-01-20T05:40:15.774Z,10.20
2023-01-20T05:45:13.328Z,6.80
2023-01-20T05:50:11.746Z,7.45
2023-01-20T05:55:09.516Z,12.95
2023-01-20T06:00:08.745Z,10.80
2023-01-20T06:05:06.977Z,11.97
2023-01-20T06:10:04.487Z,10.13
2023-01-20T06:15:01.947Z,8.73
2023-01-20T06:20:00.394Z,6.35
2023-01-20T06:24:57.789Z,12.85
2023-01-20T06:29:55.010Z,8.98
2023-01-20T06:34:53.503Z,12.43
2023-01-20T06:39:50.838Z,14.48
2023-01-20T06:44:48.073Z,10.65
2023-01-20T06:49:45.328Z,9.70
2023-01-20T06:54:42.677Z,9.10
2023-01-20T06:59:39.952Z,8.82
2023-01-20T07:04:37.278Z,7.32
2023-01-20T07:09:34.451Z,9.43
2023-01-20T07:14:31.783Z,11.27
2023-01-20T07:19:29.080Z,6.30
2023-01-20T07:24:26.316Z,10.48
2023-01-20T07:29:27.759Z,9.18
2023-01-20T07:34:25.212Z,8.38
2023-01-20T07:39:22.449Z,8.63
2023-01-20T07:44:19.817Z,10.05
2023-01-20T07:49:22.961Z,14.07
2023-01-20T07:54:23.093Z,11.23
2023-01-20T08:04:26.996Z,13.40
2023-01-20T08:09:24.531Z,16.13
2023-01-20T08:14:24.819Z,11.88
2023-01-20T08:19:22.131Z,15.00
2023-01-20T08:24:19.541Z,13.68
2023-01-20T08:29:23.788Z,11.38
2023-01-20T08:34:23.381Z,15.90
2023-01-20T08:39:21.407Z,16.38
2023-01-20T08:44:21.517Z,18.98
2023-01-20T08:54:22.543Z,20.10
2023-01-20T08:59:20.700Z,20.00
2023-01-20T09:04:17.974Z,19.00
2023-01-20T09:09:17.405Z,31.60
2023-01-20T09:14:15.328Z,16.75
2023-01-20T09:19:22.472Z,10.07
2023-01-20T09:24:22.707Z,10.23
2023-01-20T09:29:24.197Z,12.63
2023-01-20T09:34:29.714Z,11.48
2023-01-20T09:39:48.605Z,11.18
2023-01-20T09:45:27.762Z,14.23
2023-01-20T09:51:00.777Z,14.93
2023-01-20T09:56:06.003Z,15.07
2023-01-20T10:01:31.067Z,13.82
2023-01-20T10:06:55.429Z,10.48
2023-01-20T10:12:16.723Z,10.68
2023-01-20T10:17:37.924Z,12.35
2023-01-20T10:22:44.609Z,16.02
2023-01-20T10:28:08.769Z,11.13
2023-01-20T10:33:28.763Z,14.10
2023-01-20T10:39:08.288Z,11.03
2023-01-20T10:44:31.362Z,13.65
2023-01-20T10:50:34.612Z,8.32
2023-01-20T10:56:12.950Z,11.50
2023-01-20T11:01:26.041Z,16.58
2023-01-20T11:06:35.471Z,7.32
2023-01-20T11:17:36.147Z,8.95
2023-01-20T11:23:06.748Z,7.57
2023-01-20T11:28:38.539Z,6.00
2023-01-20T11:34:07.349Z,9.93
2023-01-20T11:39:33.777Z,12.13
2023-01-20T11:45:20.891Z,8.32
2023-01-20T11:51:08.460Z,8.25
2023-01-20T11:56:50.842Z,9.00
2023-01-20T12:02:13.821Z,9.20
2023-01-20T12:07:48.600Z,10.35
2023-01-20T12:13:30.775Z,7.32
2023-01-20T12:19:03.197Z,7.72
2023-01-20T12:24:42.561Z,6.60
2023-01-20T12:29:45.940Z,7.03
2023-01-20T12:34:55.830Z,4.88
2023-01-20T12:40:26.763Z,6.50
2023-01-20T12:45:51.644Z,6.90
2023-01-20T12:58:06.756Z,4.90
2023-01-20T13:03:40.394Z,67.05
2023-01-20T13:09:27.749Z,55.97
2023-01-20T13:14:55.683Z,7.35
2023-01-20T13:20:26.733Z,5.28
2023-01-20T13:25:42.733Z,8.32
2023-01-20T13:37:23.792Z,4.70
2023-01-20T13:43:04.099Z,5.93
2023-01-20T13:48:41.535Z,5.85
2023-01-20T13:54:00.733Z,9.88
2023-01-20T13:59:31.605Z,8.40
2023-01-20T14:16:35.039Z,6.22
2023-01-20T14:22:10.370Z,7.00
2023-01-20T14:27:57.020Z,11.77
2023-01-20T14:38:57.596Z,7.80
2023-01-20T14:44:48.727Z,4.25
2023-01-20T15:07:58.879Z,10.50
2023-01-20T15:19:38.293Z,5.38
2023-01-20T15:24:49.632Z,6.45
2023-01-20T15:30:35.172Z,4.63
2023-01-20T15:36:15.246Z,5.95
2023-01-20T15:47:54.742Z,5.72
2023-01-20T16:15:56.234Z,16.05
2023-01-20T16:20:53.699Z,10.88
2023-01-20T16:25:51.536Z,11.20
2023-01-20T16:30:49.084Z,7.20
2023-01-20T16:35:47.064Z,9.45
2023-01-20T16:41:12.721Z,11.50
2023-01-20T16:46:22.136Z,6.93
2023-01-20T16:51:22.861Z,8.17
2023-01-20T16:56:22.615Z,14.30
2023-01-20T17:06:23.437Z,21.50
2023-01-20T17:11:27.568Z,12.52
2023-01-20T17:16:28.520Z,12.70
2023-01-20T17:21:31.286Z,12.15
2023-01-20T17:26:29.386Z,12.23
2023-01-20T17:31:32.055Z,35.38
2023-01-20T17:36:31.644Z,40.13
2023-01-20T17:41:29.315Z,28.88
2023-01-20T17:46:29.842Z,17.70
2023-01-20T17:56:28.219Z,18.25
2023-01-20T18:01:28.905Z,24.30
2023-01-20T18:06:30.720Z,23.42
2023-01-20T18:11:35.352Z,23.08
2023-01-20T18:16:38.442Z,24.48
2023-01-20T18:21:37.385Z,20.58
2023-01-20T18:26:37.308Z,17.47
2023-01-20T18:31:35.332Z,10.27
2023-01-20T18:36:38.661Z,16.02
2023-01-20T18:41:37.821Z,14.13
2023-01-20T18:46:35.720Z,18.00
2023-01-20T18:51:34.139Z,23.73
2023-01-20T18:56:33.132Z,39.88
2023-01-20T19:01:36.153Z,29.13
2023-01-20T19:06:37.116Z,34.92
2023-01-20T19:11:39.693Z,37.47
2023-01-20T19:16:45.417Z,29.17
2023-01-20T19:21:43.520Z,28.98
2023-01-20T19:26:40.928Z,30.23
2023-01-20T19:31:42.734Z,28.42
2023-01-20T19:36:40.083Z,24.70
2023-01-20T19:41:39.043Z,37.92
2023-01-20T19:46:39.061Z,41.35
2023-01-20T19:51:36.899Z,41.22
2023-01-20T19:56:37.087Z,29.67
2023-01-20T20:06:44.999Z,15.48
2023-01-20T20:11:44.959Z,17.90
2023-01-20T20:16:42.434Z,21.98
2023-01-20T20:21:39.902Z,19.35
2023-01-20T20:26:41.042Z,19.52
2023-01-20T20:31:40.468Z,16.33
2023-01-20T20:36:39.332Z,17.23
2023-01-20T20:41:39.704Z,18.45
2023-01-20T20:46:39.762Z,15.95
2023-01-20T20:51:49.427Z,15.13
2023-01-20T20:56:46.854Z,16.07
2023-01-20T21:01:44.083Z,18.48
2023-01-20T21:06:41.459Z,18.52
2023-01-20T21:11:39.997Z,23.45
2023-01-20T21:16:41.990Z,27.65
2023-01-20T21:21:39.369Z,19.52
2023-01-20T21:26:36.933Z,25.05
2023-01-20T21:31:34.802Z,23.75
2023-01-20T21:36:32.454Z,25.23
2023-01-20T21:41:29.944Z,22.60
2023-01-20T21:46:39.900Z,24.77
2023-01-20T21:51:55.820Z,33.65
2023-01-20T21:56:53.645Z,21.85
2023-01-20T22:01:51.544Z,21.77
2023-01-20T22:06:48.766Z,22.90
2023-01-20T22:11:46.122Z,22.80
2023-01-20T22:16:43.325Z,19.83
2023-01-20T22:21:40.879Z,19.65
2023-01-20T22:26:38.617Z,25.48
2023-01-20T22:31:36.115Z,22.00
2023-01-20T22:36:37.829Z,19.77
2023-01-20T22:41:35.405Z,18.73
2023-01-20T22:46:32.846Z,21.80
2023-01-20T22:51:30.862Z,21.98
2023-01-20T22:56:31.006Z,23.85
2023-01-20T23:01:33.897Z,21.40
2023-01-20T23:06:33.314Z,16.30
2023-01-20T23:11:31.257Z,17.95
2023-01-20T23:16:28.813Z,26.63
2023-01-20T23:21:26.177Z,21.55
2023-01-20T23:26:26.524Z,18.98
2023-01-20T23:31:25.590Z,23.70
2023-01-20T23:36:25.827Z,20.13
2023-01-20T23:41:23.868Z,20.33
2023-01-20T23:46:21.372Z,20.88
2023-01-20T23:51:19.149Z,24.73
2023-01-20T23:56:19.112Z,26.98
